Time;durP1;ratioP1;P1;durP2;ratioP2;P2;SDS_P1;SDS_P2;PMS_P1;PMS_P2;Temp;Humidity;BMP_temperature;BMP_pressure;BME280_temperature;BME280_humidity;BME280_pressure;Samples;Min_cycle;Max_cycle;Signal;HPM_P1;HPM_P2
2023/06/04 00:02:21;;;;;;;;;;;;;;;;;;6129557;23;19945;-94
2023/06/04 00:04:48;;;;;;;;;;;;;;;;;;6129246;23;19949;-94
2023/06/04 00:07:15;;;;;;;;;;;;;;;;;;6153546;23;19940;-94
2023/06/04 00:09:43;;;;;;;;;;;;;;;;;;6129199;23;20325;-94
2023/06/04 00:12:11;;;;;;;;;;;;;;;;;;6129500;23;19973;-93
2023/06/04 00:14:39;;;;;;;;;;;;;;;;;;6153449;23;19944;-94
2023/06/04 00:17:08;;;;;;;;;;;;;;;;;;6104953;23;20529;-94
2023/06/04 00:19:35;;;;;;;;;;;;;;;;;;6103499;23;19948;-94
2023/06/04 00:22:03;;;;;;;;;;;;;;;;;;6104699;23;19945;-94
2023/06/04 00:24:30;;;;;;;;;;;;;;;;;;6128088;23;19961;-95
2023/06/04 00:27:00;;;;;;;;;;;;;;;;;;6128939;23;19956;-94
2023/06/04 00:29:29;;;;;;;;;;;;;;;;;;6129486;23;19944;-94
2023/06/04 00:31:58;;;;;;;;;;;;;;;;;;6104938;23;19960;-94
2023/06/04 00:34:25;;;;;;;;;;;;;;;;;;6128708;23;19941;-95
2023/06/04 00:36:52;;;;;;;;;;;;;;;;;;6129286;23;19909;-94
2023/06/04 00:39:22;;;;;;;;;;;;;;;;;;6128315;23;19945;-93
2023/06/04 00:41:52;;;;;;;;;;;;;;;;;;6104798;23;19957;-93
2023/06/04 00:44:21;;;;;;;;;;;;;;;;;;6127893;23;19984;-94
2023/06/04 00:46:53;;;;;;;;;;;;;;;;;;6128055;23;19945;-94
2023/06/04 00:49:22;;;;;;;;;;;;;;;;;;6137630;23;19921;-94
2023/06/04 00:51:53;;;;;;;;;;;;;;;;;;6153802;23;19948;-95
2023/06/04 00:54:22;;;;;;;;;;;;;;;;;;6127977;23;19972;-94
2023/06/04 00:56:50;;;;;;;;;;;;;;;;;;6127487;23;19921;-93
2023/06/04 00:59:20;;;;;;;;;;;;;;;;;;6138392;23;20125;-94
2023/06/04 01:01:49;;;;;;;;;;;;;;;;;;6153392;23;19944;-94
2023/06/04 01:04:20;;;;;;;;;;;;;;;;;;6080897;23;19945;-95
2023/06/04 01:06:49;;;;;;;;;;;;;;;;;;6104128;23;19956;-95
2023/06/04 01:09:16;;;;;;;;;;;;;;;;;;6104599;23;19949;-94
2023/06/04 01:11:43;;;;;;;;;;;;;;;;;;6128290;23;19944;-94
2023/06/04 01:14:10;;;;;;;;;;;;;;;;;;6138050;23;19927;-94
2023/06/04 01:16:41;;;;;;;;;;;;;;;;;;6127917;23;19925;-93
2023/06/04 01:19:21;;;;;;;;;;;;;;;;;;6104369;23;19949;-95
2023/06/04 01:21:51;;;;;;;;;;;;;;;;;;6128321;23;20000;-94
2023/06/04 01:24:18;;;;;;;;;;;;;;;;;;6104363;23;19949;-92
2023/06/04 01:26:46;;;;;;;;;;;;;;;;;;6103670;23;19953;-94
2023/06/04 01:29:13;;;;;;;;;;;;;;;;;;6104310;23;19948;-93
2023/06/04 01:31:40;;;;;;;;;;;;;;;;;;6153287;23;19941;-93
2023/06/04 01:34:08;;;;;;;;;;;;;;;;;;6128248;23;19953;-95
2023/06/04 01:36:37;;;;;;;;;;;;;;;;;;6104525;23;19946;-94
2023/06/04 01:39:05;;;;;;;;;;;;;;;;;;6103683;23;19915;-94
2023/06/04 01:41:33;;;;;;;;;;;;;;;;;;6102859;23;19905;-94
2023/06/04 01:44:02;;;;;;;;;;;;;;;;;;6136572;23;19921;-94
2023/06/04 01:46:29;;;;;;;;;;;;;;;;;;6127021;23;19956;-95
2023/06/04 01:48:58;;;;;;;;;;;;;;;;;;6103422;23;19945;-94
2023/06/04 01:51:25;;;;;;;;;;;;;;;;;;6102760;23;19953;-94
2023/06/04 01:53:52;;;;;;;;;;;;;;;;;;6102231;23;19944;-94
2023/06/04 01:56:21;;;;;;;;;;;;;;;;;;6152986;23;19949;-94
2023/06/04 01:58:49;;;;;;;;;;;;;;;;;;6128374;23;19960;-94
2023/06/04 02:01:19;;;;;;;;;;;;;;;;;;6128156;23;20003;-95
2023/06/04 02:03:47;;;;;;;;;;;;;;;;;;6152004;23;19945;-93
2023/06/04 02:06:14;;;;;;;;;;;;;;;;;;6126862;23;19965;-93
2023/06/04 02:08:42;;;;;;;;;;;;;;;;;;6127278;23;19909;-93
2023/06/04 02:11:09;;;;;;;;;;;;;;;;;;6150845;23;19949;-94
2023/06/04 02:13:38;;;;;;;;;;;;;;;;;;6103083;23;19973;-93
2023/06/04 02:16:06;;;;;;;;;;;;;;;;;;6101970;23;19964;-94
2023/06/04 02:18:33;;;;;;;;;;;;;;;;;;6101851;23;19909;-95
2023/06/04 02:21:00;;;;;;;;;;;;;;;;;;6126889;23;19927;-94
2023/06/04 02:23:28;;;;;;;;;;;;;;;;;;6102614;23;19949;-94
2023/06/04 02:25:55;;;;;;;;;;;;;;;;;;6126641;23;19931;-94
2023/06/04 02:28:24;;;;;;;;;;;;;;;;;;6124724;23;19905;-94
2023/06/04 02:30:53;;;;;;;;;;;;;;;;;;6127132;23;20376;-96
2023/06/04 02:33:20;;;;;;;;;;;;;;;;;;6152125;23;19948;-94
2023/06/04 02:35:47;;;;;;;;;;;;;;;;;;6102100;23;19912;-94
2023/06/04 02:38:14;;;;;;;;;;;;;;;;;;6127717;23;19970;-94
2023/06/04 02:40:43;;;;;;;;;;;;;;;;;;6103984;23;19953;-94
2023/06/04 02:43:12;;;;;;;;;;;;;;;;;;6152546;23;19949;-94
2023/06/04 02:45:39;;;;;;;;;;;;;;;;;;6124729;23;19920;-95
2023/06/04 02:48:08;;;;;;;;;;;;;;;;;;6151775;23;19944;-94
2023/06/04 02:50:35;;;;;;;;;;;;;;;;;;6101061;23;19925;-94
2023/06/04 02:53:02;;;;;;;;;;;;;;;;;;6182654;23;19924;-94
2023/06/04 02:55:30;;;;;;;;;;;;;;;;;;6153898;23;19930;-93
2023/06/04 02:58:00;;;;;;;;;;;;;;;;;;6129995;23;19921;-94
2023/06/04 03:00:27;;;;;;;;;;;;;;;;;;6131278;23;19980;-94
2023/06/04 03:03:00;;;;;;;;;;;;;;;;;;6130689;23;20514;-94
2023/06/04 03:05:30;;;;;;;;;;;;;;;;;;6153501;23;19935;-93
2023/06/04 03:07:59;;;;;;;;;;;;;;;;;;6156376;23;19948;-93
2023/06/04 03:10:26;;;;;;;;;;;;;;;;;;6155344;23;19911;-93
2023/06/04 03:12:56;;;;;;;;;;;;;;;;;;6130641;23;19911;-94
2023/06/04 03:15:24;;;;;;;;;;;;;;;;;;6178190;23;19904;-93
2023/06/04 03:17:55;;;;;;;;;;;;;;;;;;6128426;23;19921;-93
2023/06/04 03:20:24;;;;;;;;;;;;;;;;;;6153147;23;19915;-93
2023/06/04 03:22:52;;;;;;;;;;;;;;;;;;6130406;23;19927;-94
2023/06/04 03:25:25;;;;;;;;;;;;;;;;;;6155531;23;19927;-94
2023/06/04 03:27:52;;;;;;;;;;;;;;;;;;6155988;23;19920;-94
2023/06/04 03:30:25;;;;;;;;;;;;;;;;;;6128945;23;19920;-94
2023/06/04 03:33:00;;;;;;;;;;;;;;;;;;6153160;23;19908;-93
2023/06/04 03:35:27;;;;;;;;;;;;;;;;;;6152825;23;19911;-93
2023/06/04 03:37:56;;;;;;;;;;;;;;;;;;6153472;23;19973;-94
2023/06/04 03:40:23;;;;;;;;;;;;;;;;;;6153813;23;19919;-93
2023/06/04 03:42:53;;;;;;;;;;;;;;;;;;6129293;23;19921;-95
2023/06/04 03:45:22;;;;;;;;;;;;;;;;;;6154515;23;19925;-94
2023/06/04 03:47:53;;;;;;;;;;;;;;;;;;6157018;23;19921;-94
2023/06/04 03:50:20;;;;;;;;;;;;;;;;;;6132366;23;19945;-94
2023/06/04 03:52:48;;;;;;;;;;;;;;;;;;6131478;23;19996;-94
2023/06/04 03:55:17;;;;;;;;;;;;;;;;;;6131254;23;19958;-94
2023/06/04 03:57:45;;;;;;;;;;;;;;;;;;6157654;23;19927;-94
2023/06/04 04:00:14;;;;;;;;;;;;;;;;;;6133598;23;19973;-94
2023/06/04 04:02:42;;;;;;;;;;;;;;;;;;6182278;23;19953;-95
2023/06/04 04:05:14;;;;;;;;;;;;;;;;;;6132276;23;19911;-93
2023/06/04 04:07:44;;;;;;;;;;;;;;;;;;6157955;23;19905;-94
2023/06/04 04:10:12;;;;;;;;;;;;;;;;;;6157117;23;19960;-95
2023/06/04 04:12:43;;;;;;;;;;;;;;;;;;6133479;23;19960;-94
2023/06/04 04:15:11;;;;;;;;;;;;;;;;;;6132497;23;19948;-94
2023/06/04 04:17:38;;;;;;;;;;;;;;;;;;6131538;23;19924;-94
2023/06/04 04:20:06;;;;;;;;;;;;;;;;;;6156741;23;19949;-93
2023/06/04 04:22:40;;;;;;;;;;;;;;;;;;6132753;23;19964;-94
2023/06/04 04:25:08;;;;;;;;;;;;;;;;;;6132439;23;19916;-94
2023/06/04 04:27:40;;;;;;;;;;;;;;;;;;6132223;23;19960;-93
2023/06/04 04:30:12;;;;;;;;;;;;;;;;;;6165252;23;19920;-93
2023/06/04 04:32:48;;;;;;;;;;;;;;;;;;6131523;23;19908;-94
2023/06/04 04:35:18;;;;;;;;;;;;;;;;;;6155261;23;19925;-94
2023/06/04 04:37:46;;;;;;;;;;;;;;;;;;6156681;23;20241;-93
2023/06/04 04:40:16;;;;;;;;;;;;;;;;;;6132000;23;19966;-93
2023/06/04 04:42:46;;;;;;;;;;;;;;;;;;6165408;23;19904;-94
2023/06/04 04:45:20;;;;;;;;;;;;;;;;;;6154837;23;19921;-94
2023/06/04 04:47:50;;;;;;;;;;;;;;;;;;6131488;23;19905;-94
2023/06/04 04:50:18;;;;;;;;;;;;;;;;;;6166249;23;20468;-94
2023/06/04 04:52:45;;;;;;;;;;;;;;;;;;6132904;23;19952;-94
2023/06/04 04:55:13;;;;;;;;;;;;;;;;;;6131948;23;19956;-94
2023/06/04 04:57:41;;;;;;;;;;;;;;;;;;6131156;23;19925;-95
2023/06/04 05:00:10;;;;;;;;;;;;;;;;;;6156307;23;19931;-94
2023/06/04 05:02:40;;;;;;;;;;;;;;;;;;6129340;23;19931;-94
2023/06/04 05:05:10;;;;;;;;;;;;;;;;;;6125258;23;20258;-91
2023/06/04 05:07:40;;;;;;;;;;;;;;;;;;6106000;23;19921;-92
2023/06/04 05:10:08;;;;;;;;;;;;;;;;;;6129244;23;19920;-91
2023/06/04 05:12:37;;;;;;;;;;;;;;;;;;6103215;23;19925;-91
2023/06/04 05:15:07;;;;;;;;;;;;;;;;;;6139205;23;20356;-92
2023/06/04 05:17:40;;;;;;;;;;;;;;;;;;6104050;23;19921;-92
2023/06/04 05:20:12;;;;;;;;;;;;;;;;;;6138652;23;19920;-91
2023/06/04 05:22:45;;;;;;;;;;;;;;;;;;6140913;23;19928;-92
2023/06/04 05:25:12;;;;;;;;;;;;;;;;;;6104250;23;19927;-91
2023/06/04 05:27:40;;;;;;;;;;;;;;;;;;6104942;23;19928;-92
2023/06/04 05:30:09;;;;;;;;;;;;;;;;;;6129428;23;19924;-91
2023/06/04 05:32:40;;;;;;;;;;;;;;;;;;6140506;23;19924;-90
2023/06/04 05:35:11;;;;;;;;;;;;;;;;;;6139905;23;19944;-92
2023/06/04 05:37:41;;;;;;;;;;;;;;;;;;6107819;23;19921;-91
2023/06/04 05:40:13;;;;;;;;;;;;;;;;;;6131691;23;19921;-91
2023/06/04 05:42:41;;;;;;;;;;;;;;;;;;6107208;23;19921;-91
2023/06/04 05:45:11;;;;;;;;;;;;;;;;;;6131538;23;19946;-91
2023/06/04 05:47:46;;;;;;;;;;;;;;;;;;6107895;23;19931;-91
2023/06/04 05:50:15;;;;;;;;;;;;;;;;;;6134671;23;20292;-92
2023/06/04 05:52:42;;;;;;;;;;;;;;;;;;6108561;23;19920;-92
2023/06/04 05:55:14;;;;;;;;;;;;;;;;;;6131950;23;20348;-90
2023/06/04 05:57:41;;;;;;;;;;;;;;;;;;6131801;23;20263;-91
2023/06/04 06:00:11;;;;;;;;;;;;;;;;;;6129758;23;19928;-92
2023/06/04 06:02:50;;;;;;;;;;;;;;;;;;6138208;23;19920;-91
2023/06/04 06:05:32;;;;;;;;;;;;;;;;;;6136705;23;19953;-90
2023/06/04 06:07:59;;;;;;;;;;;;;;;;;;6103934;23;19921;-92
2023/06/04 06:10:27;;;;;;;;;;;;;;;;;;6127165;23;20640;-92
2023/06/04 06:12:54;;;;;;;;;;;;;;;;;;6153207;23;19920;-92
2023/06/04 06:15:21;;;;;;;;;;;;;;;;;;6128425;23;20276;-92
2023/06/04 06:17:50;;;;;;;;;;;;;;;;;;6132107;23;19931;-92
2023/06/04 06:20:21;;;;;;;;;;;;;;;;;;6127043;23;19925;-92
2023/06/04 06:22:53;;;;;;;;;;;;;;;;;;6139749;23;19921;-93
2023/06/04 06:25:22;;;;;;;;;;;;;;;;;;6163864;23;19928;-91
2023/06/04 06:27:56;;;;;;;;;;;;;;;;;;6130863;23;19920;-92
2023/06/04 06:30:26;;;;;;;;;;;;;;;;;;6139052;23;19921;-93
2023/06/04 06:32:53;;;;;;;;;;;;;;;;;;6155945;23;19927;-91
2023/06/04 06:35:22;;;;;;;;;;;;;;;;;;6127571;23;19928;-92
2023/06/04 06:37:54;;;;;;;;;;;;;;;;;;6103748;23;19920;-92
2023/06/04 06:40:30;;;;;;;;;;;;;;;;;;6166276;23;20352;-93
2023/06/04 06:42:57;;;;;;;;;;;;;;;;;;6155080;23;19928;-92
2023/06/04 06:45:24;;;;;;;;;;;;;;;;;;6158829;23;19943;-92
2023/06/04 06:47:51;;;;;;;;;;;;;;;;;;6153408;23;19925;-92
2023/06/04 06:50:20;;;;;;;;;;;;;;;;;;6104037;23;19929;-92
2023/06/04 06:52:50;;;;;;;;;;;;;;;;;;6137849;23;19920;-91
2023/06/04 06:55:19;;;;;;;;;;;;;;;;;;6163748;23;20263;-93
2023/06/04 06:57:51;;;;;;;;;;;;;;;;;;6157054;23;19927;-93
2023/06/04 07:00:21;;;;;;;;;;;;;;;;;;6141202;23;19924;-91
2023/06/04 07:02:48;;;;;;;;;;;;;;;;;;6155489;23;19925;-93
2023/06/04 07:05:17;;;;;;;;;;;;;;;;;;6129464;23;19921;-91
2023/06/04 07:07:52;;;;;;;;;;;;;;;;;;6162576;23;20348;-93
2023/06/04 07:10:20;;;;;;;;;;;;;;;;;;6155394;23;19920;-92
2023/06/04 07:12:50;;;;;;;;;;;;;;;;;;6130430;23;19925;-92
2023/06/04 07:15:18;;;;;;;;;;;;;;;;;;6156781;23;19936;-92
2023/06/04 07:17:47;;;;;;;;;;;;;;;;;;6157774;23;19925;-93
2023/06/04 07:20:20;;;;;;;;;;;;;;;;;;6156366;23;19925;-92
2023/06/04 07:22:49;;;;;;;;;;;;;;;;;;6180896;23;19917;-92
2023/06/04 07:25:22;;;;;;;;;;;;;;;;;;6164945;23;19927;-92
2023/06/04 07:27:57;;;;;;;;;;;;;;;;;;6134435;23;20348;-91
2023/06/04 07:30:24;;;;;;;;;;;;;;;;;;6151316;23;19925;-92
2023/06/04 07:32:53;;;;;;;;;;;;;;;;;;6140129;23;19927;-91
2023/06/04 07:35:23;;;;;;;;;;;;;;;;;;6162537;23;19920;-91
2023/06/04 07:37:50;;;;;;;;;;;;;;;;;;6163203;23;19920;-92
2023/06/04 07:40:17;;;;;;;;;;;;;;;;;;6141147;23;19920;-92
2023/06/04 07:42:45;;;;;;;;;;;;;;;;;;6165290;23;19927;-92
2023/06/04 07:45:17;;;;;;;;;;;;;;;;;;6137552;23;19920;-93
2023/06/04 07:47:44;;;;;;;;;;;;;;;;;;6170260;23;19927;-91
2023/06/04 07:50:12;;;;;;;;;;;;;;;;;;6138234;23;19924;-92
2023/06/04 07:52:39;;;;;;;;;;;;;;;;;;6163372;23;19927;-93
2023/06/04 07:55:08;;;;;;;;;;;;;;;;;;6138298;23;19931;-92
2023/06/04 07:57:36;;;;;;;;;;;;;;;;;;6146690;23;19926;-91
2023/06/04 08:00:04;;;;;;;;;;;;;;;;;;6167820;23;20241;-92
2023/06/04 08:02:41;;;;;;;;;;;;;;;;;;6185562;23;19905;-92
2023/06/04 08:05:08;;;;;;;;;;;;;;;;;;6148273;23;19921;-93
2023/06/04 08:07:38;;;;;;;;;;;;;;;;;;6176847;23;19928;-92
2023/06/04 08:10:07;;;;;;;;;;;;;;;;;;6145992;23;20267;-91
2023/06/04 08:12:35;;;;;;;;;;;;;;;;;;6164031;23;19921;-93
2023/06/04 08:15:02;;;;;;;;;;;;;;;;;;6162443;23;19921;-92
2023/06/04 08:17:47;;;;;;;;;;;;;;;;;;6166139;23;19920;-92
2023/06/04 08:20:19;;;;;;;;;;;;;;;;;;6173494;23;19931;-92
2023/06/04 08:23:02;;;;;;;;;;;;;;;;;;6152674;23;19927;-92
2023/06/04 08:25:30;;;;;;;;;;;;;;;;;;6178009;23;19929;-93
2023/06/04 08:28:19;;;;;;;;;;;;;;;;;;6127019;23;19921;-91
2023/06/04 08:31:06;;;;;;;;;;;;;;;;;;6169159;23;19942;-92
2023/06/04 08:33:47;;;;;;;;;;;;;;;;;;6192818;23;19949;-92
2023/06/04 08:36:32;;;;;;;;;;;;;;;;;;6187880;23;19960;-93
2023/06/04 08:38:59;;;;;;;;;;;;;;;;;;6162819;23;19920;-92
2023/06/04 08:41:31;;;;;;;;;;;;;;;;;;6176546;23;19925;-91
2023/06/04 08:44:01;;;;;;;;;;;;;;;;;;6176904;23;19920;-93
2023/06/04 08:46:28;;;;;;;;;;;;;;;;;;6137545;23;20373;-93
2023/06/04 08:49:01;;;;;;;;;;;;;;;;;;6163967;23;19924;-92
2023/06/04 08:51:28;;;;;;;;;;;;;;;;;;6170207;23;19924;-92
2023/06/04 08:53:57;;;;;;;;;;;;;;;;;;6135161;23;19960;-93
2023/06/04 08:56:24;;;;;;;;;;;;;;;;;;6135782;23;19926;-92
2023/06/04 08:58:56;;;;;;;;;;;;;;;;;;6136591;23;19927;-92
2023/06/04 09:01:24;;;;;;;;;;;;;;;;;;6146342;23;19924;-93
2023/06/04 09:03:51;;;;;;;;;;;;;;;;;;6134389;23;19924;-91
2023/06/04 09:06:19;;;;;;;;;;;;;;;;;;6162315;23;19922;-93
2023/06/04 09:08:49;;;;;;;;;;;;;;;;;;6162240;23;20249;-92
2023/06/04 09:11:16;;;;;;;;;;;;;;;;;;6112368;23;19926;-93
2023/06/04 09:13:44;;;;;;;;;;;;;;;;;;6134163;23;19921;-91
2023/06/04 09:16:11;;;;;;;;;;;;;;;;;;6162792;23;19924;-92
2023/06/04 09:18:40;;;;;;;;;;;;;;;;;;6135792;23;19928;-92
2023/06/04 09:21:08;;;;;;;;;;;;;;;;;;6164888;23;19931;-93
2023/06/04 09:23:37;;;;;;;;;;;;;;;;;;6109396;23;19928;-91
2023/06/04 09:26:08;;;;;;;;;;;;;;;;;;6133248;23;20371;-93
2023/06/04 09:28:40;;;;;;;;;;;;;;;;;;6132508;23;19920;-93
2023/06/04 09:31:08;;;;;;;;;;;;;;;;;;6163444;23;19921;-93
2023/06/04 09:33:44;;;;;;;;;;;;;;;;;;6108972;23;19927;-93
2023/06/04 09:36:12;;;;;;;;;;;;;;;;;;6159379;23;19925;-91
2023/06/04 09:38:40;;;;;;;;;;;;;;;;;;6131901;23;19920;-92
2023/06/04 09:41:17;;;;;;;;;;;;;;;;;;6144870;23;19921;-92
2023/06/04 09:43:46;;;;;;;;;;;;;;;;;;6144827;23;20227;-92
2023/06/04 09:46:14;;;;;;;;;;;;;;;;;;6136503;23;19936;-93
2023/06/04 09:48:44;;;;;;;;;;;;;;;;;;6134656;23;19931;-92
2023/06/04 09:51:12;;;;;;;;;;;;;;;;;;6168346;23;19921;-93
2023/06/04 09:53:40;;;;;;;;;;;;;;;;;;6157695;23;19976;-92
2023/06/04 09:56:11;;;;;;;;;;;;;;;;;;6168417;23;19927;-92
2023/06/04 09:58:38;;;;;;;;;;;;;;;;;;6158978;23;19920;-92
2023/06/04 10:01:06;;;;;;;;;;;;;;;;;;6133629;23;19920;-92
2023/06/04 10:03:33;;;;;;;;;;;;;;;;;;6160344;23;19935;-91
2023/06/04 10:06:02;;;;;;;;;;;;;;;;;;6168962;23;19920;-93
2023/06/04 10:08:34;;;;;;;;;;;;;;;;;;6159284;23;19920;-92
2023/06/04 10:11:03;;;;;;;;;;;;;;;;;;6135169;23;20255;-92
2023/06/04 10:13:31;;;;;;;;;;;;;;;;;;6161166;23;19920;-93
2023/06/04 10:15:59;;;;;;;;;;;;;;;;;;6159709;23;19921;-93
2023/06/04 10:18:28;;;;;;;;;;;;;;;;;;6132047;23;19925;-92
2023/06/04 10:20:56;;;;;;;;;;;;;;;;;;6158592;23;19928;-93
2023/06/04 10:23:23;;;;;;;;;;;;;;;;;;6167620;23;19921;-92
2023/06/04 10:25:52;;;;;;;;;;;;;;;;;;6133441;23;19921;-93
2023/06/04 10:28:20;;;;;;;;;;;;;;;;;;6166631;23;19943;-92
2023/06/04 10:30:50;;;;;;;;;;;;;;;;;;6132238;23;20263;-92
2023/06/04 10:33:24;;;;;;;;;;;;;;;;;;6107786;23;19934;-92
2023/06/04 10:35:56;;;;;;;;;;;;;;;;;;6165800;23;19925;-92
2023/06/04 10:38:28;;;;;;;;;;;;;;;;;;6166521;23;19920;-92
2023/06/04 10:40:56;;;;;;;;;;;;;;;;;;6157495;23;19920;-93
2023/06/04 10:43:30;;;;;;;;;;;;;;;;;;6158777;23;20260;-94
2023/06/04 10:45:57;;;;;;;;;;;;;;;;;;6158225;23;19927;-93
2023/06/04 10:48:24;;;;;;;;;;;;;;;;;;6160175;23;19920;-92
2023/06/04 10:50:55;;;;;;;;;;;;;;;;;;6159254;23;19925;-92
2023/06/04 10:53:23;;;;;;;;;;;;;;;;;;6133510;23;19925;-93
2023/06/04 10:55:51;;;;;;;;;;;;;;;;;;6109814;23;19920;-94
2023/06/04 10:58:20;;;;;;;;;;;;;;;;;;6144401;23;19926;-93
2023/06/04 11:00:49;;;;;;;;;;;;;;;;;;6159129;23;19921;-92
2023/06/04 11:03:19;;;;;;;;;;;;;;;;;;6169602;23;20233;-92
2023/06/04 11:05:47;;;;;;;;;;;;;;;;;;6160207;23;19921;-93
2023/06/04 11:08:28;;;;;;;;;;;;;;;;;;6124288;23;19908;-90
2023/06/04 11:10:57;;;;;;;;;;;;;;;;;;6183593;23;19921;-92
2023/06/04 11:13:25;;;;;;;;;;;;;;;;;;6160378;23;19920;-92
2023/06/04 11:16:20;;;;;;;;;;;;;;;;;;6157129;23;19925;-92
2023/06/04 11:18:56;;;;;;;;;;;;;;;;;;6169566;23;19921;-93
2023/06/04 11:21:31;;;;;;;;;;;;;;;;;;6168125;23;19921;-92
2023/06/04 11:24:01;;;;;;;;;;;;;;;;;;6132562;23;19927;-93
2023/06/04 11:26:33;;;;;;;;;;;;;;;;;;6134103;23;19921;-92
2023/06/04 11:29:11;;;;;;;;;;;;;;;;;;6159779;23;19924;-93
2023/06/04 11:31:43;;;;;;;;;;;;;;;;;;6169790;23;19927;-93
2023/06/04 11:34:13;;;;;;;;;;;;;;;;;;6158791;23;19920;-93
2023/06/04 11:36:40;;;;;;;;;;;;;;;;;;6132164;23;19921;-92
2023/06/04 11:39:08;;;;;;;;;;;;;;;;;;6169290;23;19920;-92
2023/06/04 11:41:36;;;;;;;;;;;;;;;;;;6135340;23;19927;-93
2023/06/04 11:44:05;;;;;;;;;;;;;;;;;;6159181;23;20356;-93
2023/06/04 11:46:33;;;;;;;;;;;;;;;;;;6108375;23;19925;-92
2023/06/04 11:49:01;;;;;;;;;;;;;;;;;;6136191;23;19921;-93
2023/06/04 11:51:30;;;;;;;;;;;;;;;;;;6171547;23;19921;-92
2023/06/04 11:53:58;;;;;;;;;;;;;;;;;;6120737;23;19921;-93
2023/06/04 11:56:26;;;;;;;;;;;;;;;;;;6179547;23;19931;-93
2023/06/04 11:58:54;;;;;;;;;;;;;;;;;;6175334;23;19925;-93
2023/06/04 12:01:22;;;;;;;;;;;;;;;;;;6138388;23;19920;-92
2023/06/04 12:03:52;;;;;;;;;;;;;;;;;;6159528;23;19920;-94
2023/06/04 12:06:20;;;;;;;;;;;;;;;;;;6158140;23;19927;-92
2023/06/04 12:08:51;;;;;;;;;;;;;;;;;;6157662;23;19924;-93
2023/06/04 12:11:27;;;;;;;;;;;;;;;;;;6131990;23;19921;-93
2023/06/04 12:13:55;;;;;;;;;;;;;;;;;;6168590;23;20351;-92
2023/06/04 12:16:22;;;;;;;;;;;;;;;;;;6158364;23;19927;-92
2023/06/04 12:18:52;;;;;;;;;;;;;;;;;;6169816;23;19925;-92
2023/06/04 12:21:26;;;;;;;;;;;;;;;;;;6134443;23;19927;-92
2023/06/04 12:23:54;;;;;;;;;;;;;;;;;;6168190;23;19921;-92
2023/06/04 12:26:28;;;;;;;;;;;;;;;;;;6132219;23;19931;-92
2023/06/04 12:28:59;;;;;;;;;;;;;;;;;;6167809;23;19920;-92
2023/06/04 12:31:31;;;;;;;;;;;;;;;;;;6167503;23;19943;-92
2023/06/04 12:33:59;;;;;;;;;;;;;;;;;;6131095;23;19920;-93
2023/06/04 12:36:28;;;;;;;;;;;;;;;;;;6158664;23;20383;-92
2023/06/04 12:38:58;;;;;;;;;;;;;;;;;;6159122;23;19943;-92
2023/06/04 12:41:26;;;;;;;;;;;;;;;;;;6156878;23;19973;-92
2023/06/04 12:43:56;;;;;;;;;;;;;;;;;;6131334;23;19928;-91
2023/06/04 12:46:26;;;;;;;;;;;;;;;;;;6157470;23;19925;-92
2023/06/04 12:48:54;;;;;;;;;;;;;;;;;;6132152;23;20260;-92
2023/06/04 12:51:26;;;;;;;;;;;;;;;;;;6141563;23;19931;-92
2023/06/04 12:53:57;;;;;;;;;;;;;;;;;;6131878;23;19924;-92
2023/06/04 12:56:26;;;;;;;;;;;;;;;;;;6157992;23;19924;-92
2023/06/04 12:58:53;;;;;;;;;;;;;;;;;;6157215;23;19920;-92
2023/06/04 13:01:20;;;;;;;;;;;;;;;;;;6157878;23;19921;-92
2023/06/04 13:03:47;;;;;;;;;;;;;;;;;;6156836;23;20391;-92
2023/06/04 13:06:15;;;;;;;;;;;;;;;;;;6139981;23;19927;-92
2023/06/04 13:08:44;;;;;;;;;;;;;;;;;;6158291;23;19928;-93
2023/06/04 13:11:13;;;;;;;;;;;;;;;;;;6157526;23;19921;-92
2023/06/04 13:13:40;;;;;;;;;;;;;;;;;;6167605;23;19920;-93
2023/06/04 13:16:08;;;;;;;;;;;;;;;;;;6159579;23;19928;-92
2023/06/04 13:18:35;;;;;;;;;;;;;;;;;;6158060;23;20340;-92
2023/06/04 13:21:02;;;;;;;;;;;;;;;;;;6157679;23;19931;-92
2023/06/04 13:23:29;;;;;;;;;;;;;;;;;;6157837;23;19920;-92
2023/06/04 13:25:56;;;;;;;;;;;;;;;;;;6131550;23;20390;-92
2023/06/04 13:28:25;;;;;;;;;;;;;;;;;;6159076;23;19925;-92
2023/06/04 13:30:52;;;;;;;;;;;;;;;;;;6159010;23;19921;-92
2023/06/04 13:33:21;;;;;;;;;;;;;;;;;;6158869;23;19921;-92
2023/06/04 13:35:50;;;;;;;;;;;;;;;;;;6143271;23;19921;-92
2023/06/04 13:38:17;;;;;;;;;;;;;;;;;;6133484;23;19928;-93
2023/06/04 13:40:47;;;;;;;;;;;;;;;;;;6110651;23;19920;-93
2023/06/04 13:43:14;;;;;;;;;;;;;;;;;;6136445;23;19935;-91
2023/06/04 13:45:44;;;;;;;;;;;;;;;;;;6139722;23;19924;-93
2023/06/04 13:48:11;;;;;;;;;;;;;;;;;;6160746;23;19921;-92
2023/06/04 13:50:38;;;;;;;;;;;;;;;;;;6133866;23;19920;-92
2023/06/04 13:53:09;;;;;;;;;;;;;;;;;;6133955;23;19920;-92
2023/06/04 13:55:36;;;;;;;;;;;;;;;;;;6131612;23;19927;-91
2023/06/04 13:58:03;;;;;;;;;;;;;;;;;;6162440;23;20334;-92
2023/06/04 14:00:34;;;;;;;;;;;;;;;;;;6133261;23;20279;-91
2023/06/04 14:03:05;;;;;;;;;;;;;;;;;;6136185;23;19921;-91
2023/06/04 14:05:33;;;;;;;;;;;;;;;;;;6168922;23;19924;-92
2023/06/04 14:08:00;;;;;;;;;;;;;;;;;;6135789;23;19921;-93
2023/06/04 14:10:27;;;;;;;;;;;;;;;;;;6159122;23;19936;-92
2023/06/04 14:12:55;;;;;;;;;;;;;;;;;;6162288;23;19935;-92
2023/06/04 14:15:22;;;;;;;;;;;;;;;;;;6163352;23;19927;-92
2023/06/04 14:17:49;;;;;;;;;;;;;;;;;;6179978;23;19909;-92
2023/06/04 14:20:18;;;;;;;;;;;;;;;;;;6180391;23;19956;-92
2023/06/04 14:22:48;;;;;;;;;;;;;;;;;;6157705;23;19921;-91
2023/06/04 14:25:15;;;;;;;;;;;;;;;;;;6159355;23;19928;-92
2023/06/04 14:27:43;;;;;;;;;;;;;;;;;;6159580;23;19943;-93
2023/06/04 14:30:16;;;;;;;;;;;;;;;;;;6168022;23;19921;-94
2023/06/04 14:32:43;;;;;;;;;;;;;;;;;;6158498;23;19920;-91
2023/06/04 14:35:10;;;;;;;;;;;;;;;;;;6157986;23;19932;-92
2023/06/04 14:37:40;;;;;;;;;;;;;;;;;;6159125;23;19927;-91
2023/06/04 14:40:11;;;;;;;;;;;;;;;;;;6167019;23;19920;-92
2023/06/04 14:42:38;;;;;;;;;;;;;;;;;;6106549;23;19935;-92
2023/06/04 14:45:08;;;;;;;;;;;;;;;;;;6130535;23;20348;-93
2023/06/04 14:47:37;;;;;;;;;;;;;;;;;;6160931;23;19928;-93
2023/06/04 14:50:05;;;;;;;;;;;;;;;;;;6168108;23;19924;-92
2023/06/04 14:52:35;;;;;;;;;;;;;;;;;;6131310;23;20360;-92
2023/06/04 14:55:07;;;;;;;;;;;;;;;;;;6168002;23;20262;-92
2023/06/04 14:57:37;;;;;;;;;;;;;;;;;;6160555;23;19927;-92
2023/06/04 15:00:06;;;;;;;;;;;;;;;;;;6168784;23;20094;-92
2023/06/04 15:02:35;;;;;;;;;;;;;;;;;;6171436;23;19921;-91
2023/06/04 15:05:03;;;;;;;;;;;;;;;;;;6135976;23;19921;-93
2023/06/04 15:07:30;;;;;;;;;;;;;;;;;;6159796;23;19921;-92
2023/06/04 15:10:01;;;;;;;;;;;;;;;;;;6163576;23;19920;-92
2023/06/04 15:12:36;;;;;;;;;;;;;;;;;;6174005;23;19921;-92
2023/06/04 15:15:06;;;;;;;;;;;;;;;;;;6189794;23;19911;-90
2023/06/04 15:17:33;;;;;;;;;;;;;;;;;;6183560;23;19968;-91
2023/06/04 15:20:05;;;;;;;;;;;;;;;;;;6161028;23;19920;-92
2023/06/04 15:22:35;;;;;;;;;;;;;;;;;;6132883;23;19932;-92
2023/06/04 15:25:02;;;;;;;;;;;;;;;;;;6133339;23;19921;-93
2023/06/04 15:27:29;;;;;;;;;;;;;;;;;;6159434;23;19921;-91
2023/06/04 15:29:59;;;;;;;;;;;;;;;;;;6132649;23;19920;-93
2023/06/04 15:32:33;;;;;;;;;;;;;;;;;;6170283;23;19920;-93
2023/06/04 15:35:02;;;;;;;;;;;;;;;;;;6160066;23;19920;-93
2023/06/04 15:37:33;;;;;;;;;;;;;;;;;;6164424;23;19920;-93
2023/06/04 15:40:01;;;;;;;;;;;;;;;;;;6137467;23;19920;-93
2023/06/04 15:42:34;;;;;;;;;;;;;;;;;;6171950;23;19927;-93
2023/06/04 15:45:11;;;;;;;;;;;;;;;;;;6136701;23;19921;-92
2023/06/04 15:47:42;;;;;;;;;;;;;;;;;;6166750;23;19920;-94
2023/06/04 15:50:10;;;;;;;;;;;;;;;;;;6144441;23;20613;-94
2023/06/04 15:52:37;;;;;;;;;;;;;;;;;;6113309;23;19921;-93
2023/06/04 15:55:05;;;;;;;;;;;;;;;;;;6139015;23;19927;-93
2023/06/04 15:57:34;;;;;;;;;;;;;;;;;;6113651;23;19925;-93
2023/06/04 16:00:03;;;;;;;;;;;;;;;;;;6135556;23;19927;-92
2023/06/04 16:02:33;;;;;;;;;;;;;;;;;;6137565;23;19921;-92
2023/06/04 16:05:03;;;;;;;;;;;;;;;;;;6147623;23;19920;-93
2023/06/04 16:07:37;;;;;;;;;;;;;;;;;;6148242;23;19921;-94
2023/06/04 16:10:04;;;;;;;;;;;;;;;;;;6166086;23;19920;-92
2023/06/04 16:12:38;;;;;;;;;;;;;;;;;;6160370;23;20112;-96
2023/06/04 16:15:09;;;;;;;;;;;;;;;;;;6131347;23;19924;-95
2023/06/04 16:17:47;;;;;;;;;;;;;;;;;;6182174;23;19948;-96
2023/06/04 16:20:18;;;;;;;;;;;;;;;;;;6167521;23;19956;-95
2023/06/04 16:22:49;;;;;;;;;;;;;;;;;;6134143;23;20149;-95
2023/06/04 16:25:18;;;;;;;;;;;;;;;;;;6132843;23;19948;-95
2023/06/04 16:27:50;;;;;;;;;;;;;;;;;;6183790;23;19944;-96
2023/06/04 16:30:20;;;;;;;;;;;;;;;;;;6158038;23;19956;-96
2023/06/04 16:32:51;;;;;;;;;;;;;;;;;;6158745;23;19904;-96
2023/06/04 16:35:18;;;;;;;;;;;;;;;;;;6133923;23;19948;-96
2023/06/04 16:37:48;;;;;;;;;;;;;;;;;;6157387;23;19957;-95
2023/06/04 16:40:21;;;;;;;;;;;;;;;;;;6134511;23;19944;-95
2023/06/04 16:42:51;;;;;;;;;;;;;;;;;;6134901;23;19986;-96
2023/06/04 16:45:19;;;;;;;;;;;;;;;;;;6181113;23;19917;-95
2023/06/04 16:47:50;;;;;;;;;;;;;;;;;;6157396;23;19909;-96
2023/06/04 16:50:18;;;;;;;;;;;;;;;;;;6132460;23;19952;-96
2023/06/04 16:55:32;;;;;;;;;;;;;;;;;;6132469;23;19948;-96
2023/06/04 16:58:16;;;;;;;;;;;;;;;;;;6132116;23;19919;-94
2023/06/04 17:00:48;;;;;;;;;;;;;;;;;;6132944;23;19949;-96
2023/06/04 17:03:19;;;;;;;;;;;;;;;;;;6131014;23;20351;-82
2023/06/04 17:05:47;;;;;;;;;;;;;;;;;;6117347;23;19927;-82